sensor_id;sensor_type;location;lat;lon;timestamp;pressure;altitude;pressure_sealevel;temperature;humidity
12868;BME280;33517;49.866;8.320;2023-03-31T00:02:01;99744.69;;;12.18;86.05
12868;BME280;33517;49.866;8.320;2023-03-31T00:04:56;99744.34;;;12.21;85.37
12868;BME280;33517;49.866;8.320;2023-03-31T00:07:52;99731.38;;;12.26;85.26
12868;BME280;33517;49.866;8.320;2023-03-31T00:10:45;99707.69;;;12.32;85.58
12868;BME280;33517;49.866;8.320;2023-03-31T00:13:38;99700.75;;;12.31;85.43
12868;BME280;33517;49.866;8.320;2023-03-31T00:16:30;99697.84;;;12.20;86.18
12868;BME280;33517;49.866;8.320;2023-03-31T00:19:23;99690.53;;;12.15;86.04
12868;BME280;33517;49.866;8.320;2023-03-31T00:22:18;99682.78;;;12.14;85.73
12868;BME280;33517;49.866;8.320;2023-03-31T00:25:11;99673.59;;;12.03;86.95
12868;BME280;33517;49.866;8.320;2023-03-31T00:28:03;99677.81;;;11.97;86.83
12868;BME280;33517;49.866;8.320;2023-03-31T00:30:59;99679.63;;;11.97;86.44
12868;BME280;33517;49.866;8.320;2023-03-31T00:33:52;99674.75;;;11.94;86.69
12868;BME280;33517;49.866;8.320;2023-03-31T00:36:45;99663.13;;;11.88;87.00
12868;BME280;33517;49.866;8.320;2023-03-31T00:39:37;99658.25;;;11.85;86.53
12868;BME280;33517;49.866;8.320;2023-03-31T00:42:30;99662.53;;;11.86;86.22
12868;BME280;33517;49.866;8.320;2023-03-31T00:45:25;99666.09;;;11.79;86.29
12868;BME280;33517;49.866;8.320;2023-03-31T00:48:19;99670.16;;;11.75;86.19
12868;BME280;33517;49.866;8.320;2023-03-31T00:51:12;99663.63;;;11.71;86.59
12868;BME280;33517;49.866;8.320;2023-03-31T00:54:06;99671.53;;;11.71;86.83
12868;BME280;33517;49.866;8.320;2023-03-31T00:56:58;99667.44;;;11.68;87.09
12868;BME280;33517;49.866;8.320;2023-03-31T00:59:56;99656.44;;;11.65;86.92
12868;BME280;33517;49.866;8.320;2023-03-31T01:02:52;99653.19;;;11.63;86.84
12868;BME280;33517;49.866;8.320;2023-03-31T01:05:48;99641.00;;;11.62;87.34
12868;BME280;33517;49.866;8.320;2023-03-31T01:08:41;99635.09;;;11.60;87.54
12868;BME280;33517;49.866;8.320;2023-03-31T01:11:35;99631.09;;;11.43;89.93
12868;BME280;33517;49.866;8.320;2023-03-31T01:14:28;99621.78;;;11.40;89.87
12868;BME280;33517;49.866;8.320;2023-03-31T01:17:21;99617.31;;;11.41;89.44
12868;BME280;33517;49.866;8.320;2023-03-31T01:20:20;99617.94;;;11.43;88.50
12868;BME280;33517;49.866;8.320;2023-03-31T01:23:35;99610.50;;;11.46;88.55
12868;BME280;33517;49.866;8.320;2023-03-31T01:26:55;99595.66;;;11.45;87.74
12868;BME280;33517;49.866;8.320;2023-03-31T01:30:24;99583.69;;;11.43;88.09
12868;BME280;33517;49.866;8.320;2023-03-31T01:40:44;99563.78;;;11.12;87.97
12868;BME280;33517;49.866;8.320;2023-03-31T01:43:45;99568.19;;;11.05;88.04
12868;BME280;33517;49.866;8.320;2023-03-31T01:46:43;99553.56;;;11.03;88.21
12868;BME280;33517;49.866;8.320;2023-03-31T01:49:44;99542.81;;;10.98;88.15
12868;BME280;33517;49.866;8.320;2023-03-31T01:52:42;99539.75;;;10.94;88.39
12868;BME280;33517;49.866;8.320;2023-03-31T01:55:40;99532.63;;;10.95;88.62
12868;BME280;33517;49.866;8.320;2023-03-31T01:58:37;99522.72;;;10.97;88.79
12868;BME280;33517;49.866;8.320;2023-03-31T02:01:33;99513.66;;;10.99;88.50
12868;BME280;33517;49.866;8.320;2023-03-31T02:04:32;99518.16;;;11.05;89.44
12868;BME280;33517;49.866;8.320;2023-03-31T02:07:29;99510.88;;;11.07;89.95
12868;BME280;33517;49.866;8.320;2023-03-31T02:10:24;99506.88;;;11.11;89.32
12868;BME280;33517;49.866;8.320;2023-03-31T02:13:19;99499.41;;;11.15;89.83
12868;BME280;33517;49.866;8.320;2023-03-31T02:16:17;99493.38;;;11.21;89.71
12868;BME280;33517;49.866;8.320;2023-03-31T02:19:13;99481.06;;;11.28;89.92
12868;BME280;33517;49.866;8.320;2023-03-31T02:22:08;99484.53;;;11.35;89.21
12868;BME280;33517;49.866;8.320;2023-03-31T02:25:02;99479.97;;;11.44;89.43
12868;BME280;33517;49.866;8.320;2023-03-31T02:27:58;99473.72;;;11.51;88.85
12868;BME280;33517;49.866;8.320;2023-03-31T02:31:02;99481.47;;;11.59;88.12
12868;BME280;33517;49.866;8.320;2023-03-31T02:33:57;99466.44;;;11.60;89.01
12868;BME280;33517;49.866;8.320;2023-03-31T02:36:50;99460.00;;;11.62;88.21
12868;BME280;33517;49.866;8.320;2023-03-31T02:39:46;99462.44;;;11.64;88.03
12868;BME280;33517;49.866;8.320;2023-03-31T02:42:40;99465.13;;;11.70;88.54
12868;BME280;33517;49.866;8.320;2023-03-31T02:45:42;99464.75;;;11.73;88.01
12868;BME280;33517;49.866;8.320;2023-03-31T02:48:36;99454.19;;;11.73;88.66
12868;BME280;33517;49.866;8.320;2023-03-31T02:51:48;99446.72;;;11.77;88.56
12868;BME280;33517;49.866;8.320;2023-03-31T02:55:00;99426.84;;;11.74;88.29
12868;BME280;33517;49.866;8.320;2023-03-31T02:58:13;99411.44;;;11.78;87.33
12868;BME280;33517;49.866;8.320;2023-03-31T03:01:22;99397.47;;;11.84;87.64
12868;BME280;33517;49.866;8.320;2023-03-31T03:04:33;99371.91;;;11.78;88.27
12868;BME280;33517;49.866;8.320;2023-03-31T03:07:33;99356.06;;;11.71;88.02
12868;BME280;33517;49.866;8.320;2023-03-31T03:10:31;99346.53;;;11.70;87.23
12868;BME280;33517;49.866;8.320;2023-03-31T03:13:30;99353.41;;;11.65;87.45
12868;BME280;33517;49.866;8.320;2023-03-31T03:16:29;99348.91;;;11.59;87.50
12868;BME280;33517;49.866;8.320;2023-03-31T03:19:25;99350.16;;;11.63;86.40
12868;BME280;33517;49.866;8.320;2023-03-31T03:22:17;99342.88;;;11.71;86.88
12868;BME280;33517;49.866;8.320;2023-03-31T03:25:12;99347.16;;;11.79;86.34
12868;BME280;33517;49.866;8.320;2023-03-31T03:28:04;99332.16;;;11.79;86.34
12868;BME280;33517;49.866;8.320;2023-03-31T03:30:56;99320.63;;;11.80;85.53
12868;BME280;33517;49.866;8.320;2023-03-31T03:33:48;99315.94;;;11.76;86.17
12868;BME280;33517;49.866;8.320;2023-03-31T03:36:40;99315.94;;;11.76;85.92
12868;BME280;33517;49.866;8.320;2023-03-31T03:39:32;99325.09;;;11.80;85.90
12868;BME280;33517;49.866;8.320;2023-03-31T03:42:25;99324.88;;;11.81;86.31
12868;BME280;33517;49.866;8.320;2023-03-31T03:45:18;99307.47;;;11.80;85.99
12868;BME280;33517;49.866;8.320;2023-03-31T03:48:10;99287.38;;;11.73;86.93
12868;BME280;33517;49.866;8.320;2023-03-31T03:51:01;99279.84;;;11.70;86.92
12868;BME280;33517;49.866;8.320;2023-03-31T03:53:54;99253.25;;;11.65;86.65
12868;BME280;33517;49.866;8.320;2023-03-31T03:56:46;99248.84;;;11.65;86.69
12868;BME280;33517;49.866;8.320;2023-03-31T03:59:39;99241.28;;;11.56;88.09
12868;BME280;33517;49.866;8.320;2023-03-31T04:02:31;99252.00;;;11.48;88.44
12868;BME280;33517;49.866;8.320;2023-03-31T04:05:23;99234.19;;;11.50;88.60
12868;BME280;33517;49.866;8.320;2023-03-31T04:08:14;99248.16;;;11.50;87.90
12868;BME280;33517;49.866;8.320;2023-03-31T04:11:10;99261.72;;;11.47;88.80
12868;BME280;33517;49.866;8.320;2023-03-31T04:14:04;99266.38;;;11.45;88.69
12868;BME280;33517;49.866;8.320;2023-03-31T04:16:57;99256.66;;;11.46;88.51
12868;BME280;33517;49.866;8.320;2023-03-31T04:19:49;99253.25;;;11.52;87.94
12868;BME280;33517;49.866;8.320;2023-03-31T04:22:42;99235.19;;;11.49;87.99
12868;BME280;33517;49.866;8.320;2023-03-31T04:25:36;99223.66;;;11.50;87.60
12868;BME280;33517;49.866;8.320;2023-03-31T04:28:35;99221.00;;;11.56;87.79
12868;BME280;33517;49.866;8.320;2023-03-31T04:31:27;99228.28;;;11.54;87.20
12868;BME280;33517;49.866;8.320;2023-03-31T04:34:21;99221.63;;;11.52;86.70
12868;BME280;33517;49.866;8.320;2023-03-31T04:37:16;99205.41;;;11.48;87.45
12868;BME280;33517;49.866;8.320;2023-03-31T04:40:08;99191.41;;;11.54;87.30
12868;BME280;33517;49.866;8.320;2023-03-31T04:43:01;99198.31;;;11.55;86.62
12868;BME280;33517;49.866;8.320;2023-03-31T04:45:53;99204.59;;;11.54;87.06
12868;BME280;33517;49.866;8.320;2023-03-31T04:48:45;99209.69;;;11.56;87.42
12868;BME280;33517;49.866;8.320;2023-03-31T04:51:38;99216.97;;;11.54;88.29
12868;BME280;33517;49.866;8.320;2023-03-31T04:54:30;99215.75;;;11.56;88.65
12868;BME280;33517;49.866;8.320;2023-03-31T04:57:21;99206.03;;;11.57;88.34
12868;BME280;33517;49.866;8.320;2023-03-31T05:00:14;99191.84;;;11.58;89.08
12868;BME280;33517;49.866;8.320;2023-03-31T05:03:06;99208.22;;;11.47;89.75
12868;BME280;33517;49.866;8.320;2023-03-31T05:05:59;99201.13;;;11.41;91.42
12868;BME280;33517;49.866;8.320;2023-03-31T05:08:52;99192.44;;;11.40;92.51
12868;BME280;33517;49.866;8.320;2023-03-31T05:11:44;99200.91;;;11.36;92.44
12868;BME280;33517;49.866;8.320;2023-03-31T05:14:36;99175.16;;;11.31;92.78
12868;BME280;33517;49.866;8.320;2023-03-31T05:17:30;99170.50;;;11.27;93.37
12868;BME280;33517;49.866;8.320;2023-03-31T05:20:23;99167.84;;;11.20;94.03
12868;BME280;33517;49.866;8.320;2023-03-31T05:23:15;99166.66;;;11.23;94.39
12868;BME280;33517;49.866;8.320;2023-03-31T05:26:08;99156.09;;;11.16;95.29
12868;BME280;33517;49.866;8.320;2023-03-31T05:29:00;99158.13;;;11.14;96.17
12868;BME280;33517;49.866;8.320;2023-03-31T05:31:52;99141.94;;;11.17;96.16
12868;BME280;33517;49.866;8.320;2023-03-31T05:34:44;99132.81;;;11.20;96.05
12868;BME280;33517;49.866;8.320;2023-03-31T05:37:36;99133.41;;;11.22;95.89
12868;BME280;33517;49.866;8.320;2023-03-31T05:40:28;99125.34;;;11.23;95.87
12868;BME280;33517;49.866;8.320;2023-03-31T05:43:21;99128.19;;;11.28;95.78
12868;BME280;33517;49.866;8.320;2023-03-31T05:46:13;99111.38;;;11.42;93.93
12868;BME280;33517;49.866;8.320;2023-03-31T05:49:05;99097.56;;;11.07;94.86
12868;BME280;33517;49.866;8.320;2023-03-31T05:51:57;99101.34;;;10.79;98.09
12868;BME280;33517;49.866;8.320;2023-03-31T05:54:49;99094.44;;;10.71;99.56
12868;BME280;33517;49.866;8.320;2023-03-31T05:57:40;99065.28;;;10.66;100.00
12868;BME280;33517;49.866;8.320;2023-03-31T06:00:34;99071.69;;;10.44;100.00
12868;BME280;33517;49.866;8.320;2023-03-31T06:03:27;99060.19;;;10.52;100.00
12868;BME280;33517;49.866;8.320;2023-03-31T06:06:19;99044.81;;;10.49;100.00
12868;BME280;33517;49.866;8.320;2023-03-31T06:09:11;99026.38;;;10.42;100.00
12868;BME280;33517;49.866;8.320;2023-03-31T06:12:04;99025.78;;;10.47;100.00
12868;BME280;33517;49.866;8.320;2023-03-31T06:14:56;99015.25;;;10.40;100.00
12868;BME280;33517;49.866;8.320;2023-03-31T06:17:49;99007.97;;;10.42;100.00
12868;BME280;33517;49.866;8.320;2023-03-31T06:20:41;98997.06;;;10.52;100.00
12868;BME280;33517;49.866;8.320;2023-03-31T06:23:33;98983.72;;;10.53;100.00
12868;BME280;33517;49.866;8.320;2023-03-31T06:26:25;98993.81;;;10.50;100.00
12868;BME280;33517;49.866;8.320;2023-03-31T06:29:17;98981.06;;;10.53;100.00
12868;BME280;33517;49.866;8.320;2023-03-31T06:32:09;98975.44;;;10.56;100.00
12868;BME280;33517;49.866;8.320;2023-03-31T06:35:03;98978.44;;;10.53;100.00
12868;BME280;33517;49.866;8.320;2023-03-31T06:37:55;98968.53;;;10.55;100.00
12868;BME280;33517;49.866;8.320;2023-03-31T06:40:47;98948.53;;;10.54;100.00
12868;BME280;33517;49.866;8.320;2023-03-31T06:43:39;98946.91;;;10.60;100.00
12868;BME280;33517;49.866;8.320;2023-03-31T06:46:30;98943.47;;;10.66;100.00
12868;BME280;33517;49.866;8.320;2023-03-31T06:49:22;98949.75;;;10.71;100.00
12868;BME280;33517;49.866;8.320;2023-03-31T06:52:15;98939.00;;;10.79;100.00
12868;BME280;33517;49.866;8.320;2023-03-31T06:55:08;98927.69;;;10.85;100.00
12868;BME280;33517;49.866;8.320;2023-03-31T06:58:00;98931.75;;;10.94;100.00
12868;BME280;33517;49.866;8.320;2023-03-31T07:00:52;98923.63;;;11.02;100.00
12868;BME280;33517;49.866;8.320;2023-03-31T07:03:44;98938.41;;;11.03;100.00
12868;BME280;33517;49.866;8.320;2023-03-31T07:06:36;98942.03;;;11.02;100.00
12868;BME280;33517;49.866;8.320;2023-03-31T07:09:29;98939.00;;;11.05;100.00
12868;BME280;33517;49.866;8.320;2023-03-31T07:12:21;98928.47;;;11.12;100.00
12868;BME280;33517;49.866;8.320;2023-03-31T07:15:13;98920.59;;;11.05;100.00
12868;BME280;33517;49.866;8.320;2023-03-31T07:18:04;98950.97;;;10.75;100.00
12868;BME280;33517;49.866;8.320;2023-03-31T07:20:57;98962.50;;;10.68;100.00
12868;BME280;33517;49.866;8.320;2023-03-31T07:23:49;98956.81;;;10.71;100.00
12868;BME280;33517;49.866;8.320;2023-03-31T07:26:43;98962.91;;;10.91;100.00
12868;BME280;33517;49.866;8.320;2023-03-31T07:29:34;98971.00;;;11.02;100.00
12868;BME280;33517;49.866;8.320;2023-03-31T07:32:26;98965.72;;;11.22;100.00
12868;BME280;33517;49.866;8.320;2023-03-31T07:35:18;98955.41;;;11.27;100.00
12868;BME280;33517;49.866;8.320;2023-03-31T07:38:12;98947.91;;;11.31;100.00
12868;BME280;33517;49.866;8.320;2023-03-31T07:41:08;98961.44;;;11.41;100.00
12868;BME280;33517;49.866;8.320;2023-03-31T07:44:02;98954.53;;;11.59;100.00
12868;BME280;33517;49.866;8.320;2023-03-31T07:46:54;98953.00;;;11.96;100.00
12868;BME280;33517;49.866;8.320;2023-03-31T07:49:48;98945.97;;;12.21;100.00
12868;BME280;33517;49.866;8.320;2023-03-31T07:52:40;98952.88;;;13.34;100.00
12868;BME280;33517;49.866;8.320;2023-03-31T07:55:32;98946.00;;;17.26;88.00
12868;BME280;33517;49.866;8.320;2023-03-31T07:58:24;98949.94;;;21.37;71.97
12868;BME280;33517;49.866;8.320;2023-03-31T08:01:19;98957.94;;;23.09;62.20
12868;BME280;33517;49.866;8.320;2023-03-31T08:04:15;98970.09;;;19.66;67.08
12868;BME280;33517;49.866;8.320;2023-03-31T08:07:07;98960.00;;;17.21;75.80
12868;BME280;33517;49.866;8.320;2023-03-31T08:10:00;98965.03;;;15.89;78.96
12868;BME280;33517;49.866;8.320;2023-03-31T08:12:52;98958.16;;;15.64;79.59
12868;BME280;33517;49.866;8.320;2023-03-31T08:15:45;98968.28;;;15.10;80.45
12868;BME280;33517;49.866;8.320;2023-03-31T08:18:38;98966.28;;;14.41;82.66
12868;BME280;33517;49.866;8.320;2023-03-31T08:21:30;98977.88;;;13.92;84.66
12868;BME280;33517;49.866;8.320;2023-03-31T08:24:22;98977.72;;;13.51;86.50
12868;BME280;33517;49.866;8.320;2023-03-31T08:27:14;98964.53;;;13.26;87.90
12868;BME280;33517;49.866;8.320;2023-03-31T08:30:08;98945.22;;;13.01;88.53
12868;BME280;33517;49.866;8.320;2023-03-31T08:33:00;98952.75;;;13.04;88.63
12868;BME280;33517;49.866;8.320;2023-03-31T08:35:54;98934.72;;;13.92;87.87
12868;BME280;33517;49.866;8.320;2023-03-31T08:38:46;98923.69;;;17.65;74.44
12868;BME280;33517;49.866;8.320;2023-03-31T08:41:46;98923.16;;;22.65;60.78
12868;BME280;33517;49.866;8.320;2023-03-31T08:44:44;98932.97;;;25.92;48.20
12868;BME280;33517;49.866;8.320;2023-03-31T08:47:39;98936.84;;;25.45;45.47
12868;BME280;33517;49.866;8.320;2023-03-31T08:50:32;98941.91;;;21.32;51.16
12868;BME280;33517;49.866;8.320;2023-03-31T08:53:28;98932.47;;;18.57;59.62
12868;BME280;33517;49.866;8.320;2023-03-31T08:56:21;98908.00;;;16.59;67.40
12868;BME280;33517;49.866;8.320;2023-03-31T08:59:18;98902.63;;;15.23;72.58
12868;BME280;33517;49.866;8.320;2023-03-31T09:02:19;98902.06;;;14.45;76.17
12868;BME280;33517;49.866;8.320;2023-03-31T09:05:32;98908.94;;;14.05;78.54
12868;BME280;33517;49.866;8.320;2023-03-31T09:08:33;98911.31;;;13.95;80.58
12868;BME280;33517;49.866;8.320;2023-03-31T09:11:31;98912.38;;;14.06;80.29
12868;BME280;33517;49.866;8.320;2023-03-31T09:14:29;98913.72;;;14.26;79.88
12868;BME280;33517;49.866;8.320;2023-03-31T09:17:26;98916.28;;;14.62;78.70
12868;BME280;33517;49.866;8.320;2023-03-31T09:20:22;98897.03;;;18.57;67.06
12868;BME280;33517;49.866;8.320;2023-03-31T09:23:23;98900.53;;;18.35;62.54
12868;BME280;33517;49.866;8.320;2023-03-31T09:26:24;98878.22;;;16.57;66.10
12868;BME280;33517;49.866;8.320;2023-03-31T09:29:20;98876.00;;;15.81;69.44
12868;BME280;33517;49.866;8.320;2023-03-31T09:32:16;98889.00;;;15.08;71.85
12868;BME280;33517;49.866;8.320;2023-03-31T09:35:15;98893.19;;;14.93;73.24
12868;BME280;33517;49.866;8.320;2023-03-31T09:38:08;98890.97;;;14.78;73.75
12868;BME280;33517;49.866;8.320;2023-03-31T09:41:01;98888.75;;;14.52;75.01
12868;BME280;33517;49.866;8.320;2023-03-31T09:43:56;98892.97;;;14.41;76.82
12868;BME280;33517;49.866;8.320;2023-03-31T09:46:48;98889.09;;;14.26;76.19
12868;BME280;33517;49.866;8.320;2023-03-31T09:49:44;98891.38;;;14.22;77.15
12868;BME280;33517;49.866;8.320;2023-03-31T09:52:39;98886.22;;;14.57;76.52
12868;BME280;33517;49.866;8.320;2023-03-31T09:55:49;98865.06;;;14.80;76.30
12868;BME280;33517;49.866;8.320;2023-03-31T09:58:44;98851.47;;;15.23;75.65
12868;BME280;33517;49.866;8.320;2023-03-31T10:01:38;98836.72;;;15.15;72.37
12868;BME280;33517;49.866;8.320;2023-03-31T10:04:32;98845.13;;;15.24;70.87
12868;BME280;33517;49.866;8.320;2023-03-31T10:07:25;98831.78;;;15.70;70.56
12868;BME280;33517;49.866;8.320;2023-03-31T10:10:26;98846.97;;;15.23;70.42
12868;BME280;33517;49.866;8.320;2023-03-31T10:13:22;98867.34;;;14.53;71.73
12868;BME280;33517;49.866;8.320;2023-03-31T10:16:21;98865.59;;;13.04;76.67
12868;BME280;33517;49.866;8.320;2023-03-31T10:19:20;98870.22;;;12.59;79.88
12868;BME280;33517;49.866;8.320;2023-03-31T10:22:15;98863.78;;;12.55;81.88
12868;BME280;33517;49.866;8.320;2023-03-31T10:25:14;98864.88;;;12.90;80.68
12868;BME280;33517;49.866;8.320;2023-03-31T10:28:10;98864.78;;;13.04;78.90
12868;BME280;33517;49.866;8.320;2023-03-31T10:31:03;98862.00;;;12.92;79.46
12868;BME280;33517;49.866;8.320;2023-03-31T10:33:55;98865.78;;;13.03;79.53
12868;BME280;33517;49.866;8.320;2023-03-31T10:36:50;98855.28;;;13.86;77.04
12868;BME280;33517;49.866;8.320;2023-03-31T10:39:43;98853.41;;;14.35;75.40
12868;BME280;33517;49.866;8.320;2023-03-31T10:42:35;98839.16;;;14.94;72.64
12868;BME280;33517;49.866;8.320;2023-03-31T10:45:29;98844.34;;;15.00;71.95
12868;BME280;33517;49.866;8.320;2023-03-31T10:48:24;98827.44;;;15.52;71.34
12868;BME280;33517;49.866;8.320;2023-03-31T10:51:19;98811.41;;;16.65;69.32
12868;BME280;33517;49.866;8.320;2023-03-31T10:54:12;98817.25;;;17.87;63.21
12868;BME280;33517;49.866;8.320;2023-03-31T10:57:04;98822.09;;;19.31;61.29
12868;BME280;33517;49.866;8.320;2023-03-31T11:00:08;98814.66;;;20.36;56.52
12868;BME280;33517;49.866;8.320;2023-03-31T11:03:20;98801.47;;;21.78;53.54
12868;BME280;33517;49.866;8.320;2023-03-31T11:06:21;98811.22;;;23.04;50.70
12868;BME280;33517;49.866;8.320;2023-03-31T11:09:32;98807.72;;;24.30;45.12
12868;BME280;33517;49.866;8.320;2023-03-31T11:12:30;98812.72;;;24.00;44.84
12868;BME280;33517;49.866;8.320;2023-03-31T11:15:29;98812.09;;;23.47;44.19
12868;BME280;33517;49.866;8.320;2023-03-31T11:18:37;98803.53;;;22.69;45.34
12868;BME280;33517;49.866;8.320;2023-03-31T11:21:41;98801.78;;;22.16;46.91
12868;BME280;33517;49.866;8.320;2023-03-31T11:25:02;98801.84;;;20.48;50.21
12868;BME280;33517;49.866;8.320;2023-03-31T11:28:20;98788.16;;;20.04;51.65
12868;BME280;33517;49.866;8.320;2023-03-31T11:31:26;98795.97;;;18.45;55.23
12868;BME280;33517;49.866;8.320;2023-03-31T11:34:32;98786.13;;;17.87;57.94
12868;BME280;33517;49.866;8.320;2023-03-31T11:37:37;98778.16;;;17.87;58.46
12868;BME280;33517;49.866;8.320;2023-03-31T11:40:42;98780.00;;;18.18;56.85
12868;BME280;33517;49.866;8.320;2023-03-31T11:43:42;98778.84;;;18.04;55.59
12868;BME280;33517;49.866;8.320;2023-03-31T11:46:41;98776.13;;;18.31;54.11
12868;BME280;33517;49.866;8.320;2023-03-31T11:49:37;98779.66;;;18.73;54.05
12868;BME280;33517;49.866;8.320;2023-03-31T11:52:33;98780.03;;;18.92;55.64
12868;BME280;33517;49.866;8.320;2023-03-31T11:55:26;98784.97;;;19.20;54.67
12868;BME280;33517;49.866;8.320;2023-03-31T11:58:23;98757.41;;;20.77;50.79
12868;BME280;33517;49.866;8.320;2023-03-31T12:01:23;98767.38;;;21.45;50.14
12868;BME280;33517;49.866;8.320;2023-03-31T12:04:25;98759.59;;;20.60;49.55
12868;BME280;33517;49.866;8.320;2023-03-31T12:07:27;98748.38;;;20.17;50.35
12868;BME280;33517;49.866;8.320;2023-03-31T12:10:22;98770.56;;;18.69;54.06
12868;BME280;33517;49.866;8.320;2023-03-31T12:13:33;98776.28;;;17.18;60.16
12868;BME280;33517;49.866;8.320;2023-03-31T12:16:36;98766.34;;;16.20;65.13
12868;BME280;33517;49.866;8.320;2023-03-31T12:19:34;98760.69;;;15.84;66.00
12868;BME280;33517;49.866;8.320;2023-03-31T12:22:30;98743.16;;;15.83;66.09
12868;BME280;33517;49.866;8.320;2023-03-31T12:25:23;98748.19;;;15.67;66.43
12868;BME280;33517;49.866;8.320;2023-03-31T12:28:17;98739.91;;;15.64;66.13
12868;BME280;33517;49.866;8.320;2023-03-31T12:31:15;98736.00;;;16.66;65.11
12868;BME280;33517;49.866;8.320;2023-03-31T12:34:12;98737.19;;;18.25;60.39
12868;BME280;33517;49.866;8.320;2023-03-31T12:37:17;98721.19;;;21.20;54.52
12868;BME280;33517;49.866;8.320;2023-03-31T12:40:19;98744.38;;;23.08;46.33
12868;BME280;33517;49.866;8.320;2023-03-31T12:43:28;98736.84;;;23.52;45.66
12868;BME280;33517;49.866;8.320;2023-03-31T12:50:07;98756.63;;;20.61;49.63
12868;BME280;33517;49.866;8.320;2023-03-31T12:53:15;98751.31;;;19.14;53.63
12868;BME280;33517;49.866;8.320;2023-03-31T12:56:09;98764.84;;;17.87;57.92
12868;BME280;33517;49.866;8.320;2023-03-31T12:59:17;98749.94;;;16.56;61.72
12868;BME280;33517;49.866;8.320;2023-03-31T13:02:24;98741.09;;;15.17;64.47
12868;BME280;33517;49.866;8.320;2023-03-31T13:05:46;98762.50;;;14.64;66.09
12868;BME280;33517;49.866;8.320;2023-03-31T13:08:49;98775.28;;;14.44;66.58
12868;BME280;33517;49.866;8.320;2023-03-31T13:11:43;98784.13;;;13.85;69.72
12868;BME280;33517;49.866;8.320;2023-03-31T13:14:38;98771.66;;;12.90;75.09
12868;BME280;33517;49.866;8.320;2023-03-31T13:17:32;98776.56;;;12.68;75.60
12868;BME280;33517;49.866;8.320;2023-03-31T13:20:32;98775.34;;;12.46;75.83
12868;BME280;33517;49.866;8.320;2023-03-31T13:23:29;98770.03;;;12.53;74.90
12868;BME280;33517;49.866;8.320;2023-03-31T13:26:38;98768.19;;;12.53;74.38
12868;BME280;33517;49.866;8.320;2023-03-31T13:29:39;98748.06;;;12.59;74.86
12868;BME280;33517;49.866;8.320;2023-03-31T13:32:31;98755.81;;;12.90;76.17
12868;BME280;33517;49.866;8.320;2023-03-31T13:35:25;98739.03;;;13.03;77.69
12868;BME280;33517;49.866;8.320;2023-03-31T13:38:34;98721.50;;;13.26;76.25
12868;BME280;33517;49.866;8.320;2023-03-31T13:41:35;98712.06;;;13.48;75.95
12868;BME280;33517;49.866;8.320;2023-03-31T13:48:03;98725.56;;;13.70;75.09
12868;BME280;33517;49.866;8.320;2023-03-31T13:55:15;98713.13;;;14.58;72.23
12868;BME280;33517;49.866;8.320;2023-03-31T14:01:42;98710.28;;;15.67;69.10
12868;BME280;33517;49.866;8.320;2023-03-31T14:05:03;98716.22;;;15.74;68.01
12868;BME280;33517;49.866;8.320;2023-03-31T14:08:01;98707.72;;;16.05;67.99
12868;BME280;33517;49.866;8.320;2023-03-31T14:11:15;98704.09;;;16.11;69.00
12868;BME280;33517;49.866;8.320;2023-03-31T14:14:11;98707.44;;;15.74;68.37
12868;BME280;33517;49.866;8.320;2023-03-31T14:17:04;98701.25;;;15.68;69.01
12868;BME280;33517;49.866;8.320;2023-03-31T14:20:20;98694.22;;;15.90;69.04
12868;BME280;33517;49.866;8.320;2023-03-31T14:23:28;98693.28;;;16.34;67.47
12868;BME280;33517;49.866;8.320;2023-03-31T14:26:40;98681.72;;;17.27;66.17
12868;BME280;33517;49.866;8.320;2023-03-31T14:29:42;98687.94;;;17.59;63.26
12868;BME280;33517;49.866;8.320;2023-03-31T14:32:42;98700.09;;;17.50;63.65
12868;BME280;33517;49.866;8.320;2023-03-31T14:35:42;98693.00;;;16.91;64.47
12868;BME280;33517;49.866;8.320;2023-03-31T14:38:38;98694.66;;;16.75;65.92
12868;BME280;33517;49.866;8.320;2023-03-31T14:41:32;98693.44;;;17.26;64.02
12868;BME280;33517;49.866;8.320;2023-03-31T14:44:28;98703.75;;;16.79;63.19
12868;BME280;33517;49.866;8.320;2023-03-31T14:47:22;98719.13;;;15.89;65.40
12868;BME280;33517;49.866;8.320;2023-03-31T14:50:16;98713.59;;;15.46;69.87
12868;BME280;33517;49.866;8.320;2023-03-31T14:53:13;98710.09;;;14.77;72.08
12868;BME280;33517;49.866;8.320;2023-03-31T14:56:07;98709.06;;;13.98;75.38
12868;BME280;33517;49.866;8.320;2023-03-31T14:59:02;98713.09;;;13.59;74.50
12868;BME280;33517;49.866;8.320;2023-03-31T15:01:57;98698.53;;;13.56;73.26
12868;BME280;33517;49.866;8.320;2023-03-31T15:04:49;98703.16;;;13.72;73.45
12868;BME280;33517;49.866;8.320;2023-03-31T15:07:42;98694.31;;;13.78;73.12
12868;BME280;33517;49.866;8.320;2023-03-31T15:10:36;98699.97;;;14.05;73.17
12868;BME280;33517;49.866;8.320;2023-03-31T15:13:32;98706.00;;;14.24;72.94
12868;BME280;33517;49.866;8.320;2023-03-31T15:16:32;98712.91;;;14.48;72.25
12868;BME280;33517;49.866;8.320;2023-03-31T15:19:27;98704.69;;;14.72;70.34
12868;BME280;33517;49.866;8.320;2023-03-31T15:22:21;98709.50;;;14.75;69.99
12868;BME280;33517;49.866;8.320;2023-03-31T15:25:14;98703.44;;;14.63;70.02
12868;BME280;33517;49.866;8.320;2023-03-31T15:28:12;98705.88;;;14.53;70.98
12868;BME280;33517;49.866;8.320;2023-03-31T15:31:06;98710.50;;;14.46;72.48
12868;BME280;33517;49.866;8.320;2023-03-31T15:33:59;98699.44;;;14.49;71.75
12868;BME280;33517;49.866;8.320;2023-03-31T15:36:53;98698.72;;;14.65;71.89
12868;BME280;33517;49.866;8.320;2023-03-31T15:39:46;98685.09;;;14.85;70.97
12868;BME280;33517;49.866;8.320;2023-03-31T15:42:39;98682.69;;;14.84;70.97
12868;BME280;33517;49.866;8.320;2023-03-31T15:45:44;98692.69;;;14.82;69.92
12868;BME280;33517;49.866;8.320;2023-03-31T15:48:49;98697.69;;;14.66;70.76
12868;BME280;33517;49.866;8.320;2023-03-31T15:51:45;98699.00;;;14.52;71.67
12868;BME280;33517;49.866;8.320;2023-03-31T15:54:40;98707.50;;;14.54;72.29
12868;BME280;33517;49.866;8.320;2023-03-31T15:57:33;98712.56;;;14.44;71.52